sensor_id;sensor_type;location;lat;lon;timestamp;P1;P2;P0
42410;PMS5003;28056;51.112;0.984;2022-08-18T00:04:46;31;31;
42410;PMS5003;28056;51.112;0.984;2022-08-18T00:07:16;30;30;
42410;PMS5003;28056;51.112;0.984;2022-08-18T00:09:44;34;31;
42410;PMS5003;28056;51.112;0.984;2022-08-18T00:12:13;29;26;
42410;PMS5003;28056;51.112;0.984;2022-08-18T00:14:43;31;30;
42410;PMS5003;28056;51.112;0.984;2022-08-18T00:17:12;28;27;
42410;PMS5003;28056;51.112;0.984;2022-08-18T00:19:41;35;35;
42410;PMS5003;28056;51.112;0.984;2022-08-18T00:22:09;33;33;
42410;PMS5003;28056;51.112;0.984;2022-08-18T00:24:38;30;28;
42410;PMS5003;28056;51.112;0.984;2022-08-18T00:27:05;32;28;
42410;PMS5003;28056;51.112;0.984;2022-08-18T00:29:32;22;22;
42410;PMS5003;28056;51.112;0.984;2022-08-18T00:32:10;28;26;
42410;PMS5003;28056;51.112;0.984;2022-08-18T00:34:38;27;26;
42410;PMS5003;28056;51.112;0.984;2022-08-18T00:37:05;35;33;
42410;PMS5003;28056;51.112;0.984;2022-08-18T00:39:32;31;31;
42410;PMS5003;28056;51.112;0.984;2022-08-18T00:42:10;35;32;
42410;PMS5003;28056;51.112;0.984;2022-08-18T00:44:38;40;38;
42410;PMS5003;28056;51.112;0.984;2022-08-18T00:47:06;38;38;
42410;PMS5003;28056;51.112;0.984;2022-08-18T00:49:34;40;37;
42410;PMS5003;28056;51.112;0.984;2022-08-18T00:52:03;38;38;
42410;PMS5003;28056;51.112;0.984;2022-08-18T00:54:32;45;43;
42410;PMS5003;28056;51.112;0.984;2022-08-18T00:57:03;36;35;
42410;PMS5003;28056;51.112;0.984;2022-08-18T00:59:34;36;36;
42410;PMS5003;28056;51.112;0.984;2022-08-18T01:02:09;38;37;
42410;PMS5003;28056;51.112;0.984;2022-08-18T01:04:41;42;38;
42410;PMS5003;28056;51.112;0.984;2022-08-18T01:07:19;44;43;
42410;PMS5003;28056;51.112;0.984;2022-08-18T01:09:51;38;38;
42410;PMS5003;28056;51.112;0.984;2022-08-18T01:12:19;46;45;
42410;PMS5003;28056;51.112;0.984;2022-08-18T01:14:46;34;32;
42410;PMS5003;28056;51.112;0.984;2022-08-18T01:17:13;36;33;
42410;PMS5003;28056;51.112;0.984;2022-08-18T01:19:41;42;40;
42410;PMS5003;28056;51.112;0.984;2022-08-18T01:22:10;44;38;
42410;PMS5003;28056;51.112;0.984;2022-08-18T01:24:44;38;36;
42410;PMS5003;28056;51.112;0.984;2022-08-18T01:27:13;36;36;
42410;PMS5003;28056;51.112;0.984;2022-08-18T01:29:43;39;38;
42410;PMS5003;28056;51.112;0.984;2022-08-18T01:32:12;39;38;
42410;PMS5003;28056;51.112;0.984;2022-08-18T01:34:41;37;35;
42410;PMS5003;28056;51.112;0.984;2022-08-18T01:37:09;40;37;
42410;PMS5003;28056;51.112;0.984;2022-08-18T01:39:36;35;34;
42410;PMS5003;28056;51.112;0.984;2022-08-18T01:42:04;37;35;
42410;PMS5003;28056;51.112;0.984;2022-08-18T01:44:31;35;31;
42410;PMS5003;28056;51.112;0.984;2022-08-18T01:46:59;35;34;
42410;PMS5003;28056;51.112;0.984;2022-08-18T01:49:26;43;37;
42410;PMS5003;28056;51.112;0.984;2022-08-18T01:51:53;40;34;
42410;PMS5003;28056;51.112;0.984;2022-08-18T01:54:21;37;35;
42410;PMS5003;28056;51.112;0.984;2022-08-18T01:56:49;39;35;
42410;PMS5003;28056;51.112;0.984;2022-08-18T01:59:16;41;35;
42410;PMS5003;28056;51.112;0.984;2022-08-18T02:01:44;29;29;
42410;PMS5003;28056;51.112;0.984;2022-08-18T02:04:12;33;33;
42410;PMS5003;28056;51.112;0.984;2022-08-18T02:06:41;31;31;
42410;PMS5003;28056;51.112;0.984;2022-08-18T02:09:08;33;29;
42410;PMS5003;28056;51.112;0.984;2022-08-18T02:11:36;31;30;
42410;PMS5003;28056;51.112;0.984;2022-08-18T02:14:03;33;33;
42410;PMS5003;28056;51.112;0.984;2022-08-18T02:16:31;38;37;
42410;PMS5003;28056;51.112;0.984;2022-08-18T02:18:58;37;34;
42410;PMS5003;28056;51.112;0.984;2022-08-18T02:21:26;32;30;
42410;PMS5003;28056;51.112;0.984;2022-08-18T02:23:53;37;33;
42410;PMS5003;28056;51.112;0.984;2022-08-18T02:26:21;35;33;
42410;PMS5003;28056;51.112;0.984;2022-08-18T02:28:49;36;32;
42410;PMS5003;28056;51.112;0.984;2022-08-18T02:31:17;37;34;
42410;PMS5003;28056;51.112;0.984;2022-08-18T02:33:46;37;33;
42410;PMS5003;28056;51.112;0.984;2022-08-18T02:36:14;35;34;
42410;PMS5003;28056;51.112;0.984;2022-08-18T02:38:42;37;34;
42410;PMS5003;28056;51.112;0.984;2022-08-18T02:41:11;34;33;
42410;PMS5003;28056;51.112;0.984;2022-08-18T02:43:39;34;34;
42410;PMS5003;28056;51.112;0.984;2022-08-18T02:46:07;34;34;
42410;PMS5003;28056;51.112;0.984;2022-08-18T02:48:36;37;36;
42410;PMS5003;28056;51.112;0.984;2022-08-18T02:51:04;36;35;
42410;PMS5003;28056;51.112;0.984;2022-08-18T02:53:33;31;29;
42410;PMS5003;28056;51.112;0.984;2022-08-18T02:56:06;33;32;
42410;PMS5003;28056;51.112;0.984;2022-08-18T02:58:35;40;38;
42410;PMS5003;28056;51.112;0.984;2022-08-18T03:01:02;33;33;
42410;PMS5003;28056;51.112;0.984;2022-08-18T03:03:29;30;28;
42410;PMS5003;28056;51.112;0.984;2022-08-18T03:05:56;36;32;
42410;PMS5003;28056;51.112;0.984;2022-08-18T03:08:25;35;32;
42410;PMS5003;28056;51.112;0.984;2022-08-18T03:10:52;40;36;
42410;PMS5003;28056;51.112;0.984;2022-08-18T03:13:20;36;28;
42410;PMS5003;28056;51.112;0.984;2022-08-18T03:15:47;34;33;
42410;PMS5003;28056;51.112;0.984;2022-08-18T03:18:15;43;40;
42410;PMS5003;28056;51.112;0.984;2022-08-18T03:20:42;34;33;
42410;PMS5003;28056;51.112;0.984;2022-08-18T03:23:10;33;33;
42410;PMS5003;28056;51.112;0.984;2022-08-18T03:25:42;34;33;
42410;PMS5003;28056;51.112;0.984;2022-08-18T03:28:10;37;37;
42410;PMS5003;28056;51.112;0.984;2022-08-18T03:30:39;41;37;
42410;PMS5003;28056;51.112;0.984;2022-08-18T03:33:06;35;33;
42410;PMS5003;28056;51.112;0.984;2022-08-18T03:35:34;38;37;
42410;PMS5003;28056;51.112;0.984;2022-08-18T03:38:01;37;36;
42410;PMS5003;28056;51.112;0.984;2022-08-18T03:40:29;36;36;
42410;PMS5003;28056;51.112;0.984;2022-08-18T03:42:57;46;41;
42410;PMS5003;28056;51.112;0.984;2022-08-18T03:45:27;39;38;
42410;PMS5003;28056;51.112;0.984;2022-08-18T03:47:55;39;36;
42410;PMS5003;28056;51.112;0.984;2022-08-18T03:50:22;42;38;
42410;PMS5003;28056;51.112;0.984;2022-08-18T03:52:50;41;39;
42410;PMS5003;28056;51.112;0.984;2022-08-18T03:55:18;29;29;
42410;PMS5003;28056;51.112;0.984;2022-08-18T03:57:45;28;28;
42410;PMS5003;28056;51.112;0.984;2022-08-18T04:00:13;36;34;
42410;PMS5003;28056;51.112;0.984;2022-08-18T04:02:41;33;32;
42410;PMS5003;28056;51.112;0.984;2022-08-18T04:05:08;40;34;
42410;PMS5003;28056;51.112;0.984;2022-08-18T04:07:36;26;24;
42410;PMS5003;28056;51.112;0.984;2022-08-18T04:10:04;34;31;
42410;PMS5003;28056;51.112;0.984;2022-08-18T04:12:33;31;27;
42410;PMS5003;28056;51.112;0.984;2022-08-18T04:15:00;43;38;
42410;PMS5003;28056;51.112;0.984;2022-08-18T04:17:28;36;31;
42410;PMS5003;28056;51.112;0.984;2022-08-18T04:19:55;33;31;
42410;PMS5003;28056;51.112;0.984;2022-08-18T04:22:23;35;34;
42410;PMS5003;28056;51.112;0.984;2022-08-18T04:24:51;33;33;
42410;PMS5003;28056;51.112;0.984;2022-08-18T04:27:20;35;35;
42410;PMS5003;28056;51.112;0.984;2022-08-18T04:29:48;32;32;
42410;PMS5003;28056;51.112;0.984;2022-08-18T04:32:15;33;32;
42410;PMS5003;28056;51.112;0.984;2022-08-18T04:34:42;33;33;
42410;PMS5003;28056;51.112;0.984;2022-08-18T04:37:10;37;34;
42410;PMS5003;28056;51.112;0.984;2022-08-18T04:39:38;37;33;
42410;PMS5003;28056;51.112;0.984;2022-08-18T04:42:05;35;33;
42410;PMS5003;28056;51.112;0.984;2022-08-18T04:44:33;33;32;
42410;PMS5003;28056;51.112;0.984;2022-08-18T04:47:01;37;34;
42410;PMS5003;28056;51.112;0.984;2022-08-18T04:49:29;36;35;
42410;PMS5003;28056;51.112;0.984;2022-08-18T04:51:57;42;41;
42410;PMS5003;28056;51.112;0.984;2022-08-18T04:54:24;43;36;
42410;PMS5003;28056;51.112;0.984;2022-08-18T04:56:51;40;40;
42410;PMS5003;28056;51.112;0.984;2022-08-18T04:59:19;39;39;
42410;PMS5003;28056;51.112;0.984;2022-08-18T05:01:46;39;36;
42410;PMS5003;28056;51.112;0.984;2022-08-18T05:04:14;34;34;
42410;PMS5003;28056;51.112;0.984;2022-08-18T05:06:43;38;36;
42410;PMS5003;28056;51.112;0.984;2022-08-18T05:09:12;39;38;
42410;PMS5003;28056;51.112;0.984;2022-08-18T05:11:41;33;31;
42410;PMS5003;28056;51.112;0.984;2022-08-18T05:14:08;35;33;
42410;PMS5003;28056;51.112;0.984;2022-08-18T05:16:36;37;35;
42410;PMS5003;28056;51.112;0.984;2022-08-18T05:19:05;37;35;
42410;PMS5003;28056;51.112;0.984;2022-08-18T05:21:34;32;32;
42410;PMS5003;28056;51.112;0.984;2022-08-18T05:24:03;32;32;
42410;PMS5003;28056;51.112;0.984;2022-08-18T05:26:31;41;38;
42410;PMS5003;28056;51.112;0.984;2022-08-18T05:28:58;34;34;
42410;PMS5003;28056;51.112;0.984;2022-08-18T05:31:27;41;40;
42410;PMS5003;28056;51.112;0.984;2022-08-18T05:33:55;38;37;
42410;PMS5003;28056;51.112;0.984;2022-08-18T05:36:35;39;35;
42410;PMS5003;28056;51.112;0.984;2022-08-18T05:39:18;35;35;
42410;PMS5003;28056;51.112;0.984;2022-08-18T05:41:49;38;35;
42410;PMS5003;28056;51.112;0.984;2022-08-18T05:44:21;33;32;
42410;PMS5003;28056;51.112;0.984;2022-08-18T05:46:52;33;31;
42410;PMS5003;28056;51.112;0.984;2022-08-18T05:49:23;40;37;
42410;PMS5003;28056;51.112;0.984;2022-08-18T05:51:52;40;39;
42410;PMS5003;28056;51.112;0.984;2022-08-18T05:54:27;42;40;
42410;PMS5003;28056;51.112;0.984;2022-08-18T05:57:08;37;33;
42410;PMS5003;28056;51.112;0.984;2022-08-18T05:59:41;31;31;
42410;PMS5003;28056;51.112;0.984;2022-08-18T06:02:13;34;34;
42410;PMS5003;28056;51.112;0.984;2022-08-18T06:04:46;31;31;
42410;PMS5003;28056;51.112;0.984;2022-08-18T06:07:20;32;32;
42410;PMS5003;28056;51.112;0.984;2022-08-18T06:09:56;36;35;
42410;PMS5003;28056;51.112;0.984;2022-08-18T06:12:25;34;32;
42410;PMS5003;28056;51.112;0.984;2022-08-18T06:14:58;34;34;
42410;PMS5003;28056;51.112;0.984;2022-08-18T06:17:38;34;32;
42410;PMS5003;28056;51.112;0.984;2022-08-18T06:21:37;35;32;
42410;PMS5003;28056;51.112;0.984;2022-08-18T06:24:15;37;37;
42410;PMS5003;28056;51.112;0.984;2022-08-18T06:26:52;33;32;
42410;PMS5003;28056;51.112;0.984;2022-08-18T06:29:29;37;32;
42410;PMS5003;28056;51.112;0.984;2022-08-18T06:32:09;39;35;
42410;PMS5003;28056;51.112;0.984;2022-08-18T06:34:51;42;38;
42410;PMS5003;28056;51.112;0.984;2022-08-18T06:37:33;37;34;
42410;PMS5003;28056;51.112;0.984;2022-08-18T06:40:06;38;35;
42410;PMS5003;28056;51.112;0.984;2022-08-18T06:42:34;36;35;
42410;PMS5003;28056;51.112;0.984;2022-08-18T06:45:04;45;40;
42410;PMS5003;28056;51.112;0.984;2022-08-18T06:47:36;43;41;
42410;PMS5003;28056;51.112;0.984;2022-08-18T06:50:10;37;36;
42410;PMS5003;28056;51.112;0.984;2022-08-18T06:52:52;44;42;
42410;PMS5003;28056;51.112;0.984;2022-08-18T06:55:30;41;40;
42410;PMS5003;28056;51.112;0.984;2022-08-18T06:58:00;44;41;
42410;PMS5003;28056;51.112;0.984;2022-08-18T07:00:30;48;48;
42410;PMS5003;28056;51.112;0.984;2022-08-18T07:03:00;50;48;
42410;PMS5003;28056;51.112;0.984;2022-08-18T07:05:32;42;42;
42410;PMS5003;28056;51.112;0.984;2022-08-18T07:08:09;47;45;
42410;PMS5003;28056;51.112;0.984;2022-08-18T07:10:41;47;46;
42410;PMS5003;28056;51.112;0.984;2022-08-18T07:13:16;45;43;
42410;PMS5003;28056;51.112;0.984;2022-08-18T07:15:47;49;47;
42410;PMS5003;28056;51.112;0.984;2022-08-18T07:18:20;40;40;
42410;PMS5003;28056;51.112;0.984;2022-08-18T07:20:51;44;44;
42410;PMS5003;28056;51.112;0.984;2022-08-18T07:23:24;43;40;
42410;PMS5003;28056;51.112;0.984;2022-08-18T07:26:00;39;39;
42410;PMS5003;28056;51.112;0.984;2022-08-18T07:28:31;34;32;
42410;PMS5003;28056;51.112;0.984;2022-08-18T07:31:07;49;47;
42410;PMS5003;28056;51.112;0.984;2022-08-18T07:33:40;41;37;
42410;PMS5003;28056;51.112;0.984;2022-08-18T07:36:12;36;34;
42410;PMS5003;28056;51.112;0.984;2022-08-18T07:38:42;36;35;
42410;PMS5003;28056;51.112;0.984;2022-08-18T07:41:14;37;36;
42410;PMS5003;28056;51.112;0.984;2022-08-18T07:43:48;43;43;
42410;PMS5003;28056;51.112;0.984;2022-08-18T07:46:25;36;35;
42410;PMS5003;28056;51.112;0.984;2022-08-18T07:49:00;44;43;
42410;PMS5003;28056;51.112;0.984;2022-08-18T07:51:29;35;34;
42410;PMS5003;28056;51.112;0.984;2022-08-18T07:54:09;35;34;
42410;PMS5003;28056;51.112;0.984;2022-08-18T07:56:46;35;35;
42410;PMS5003;28056;51.112;0.984;2022-08-18T07:59:23;40;37;
42410;PMS5003;28056;51.112;0.984;2022-08-18T08:02:01;33;33;
42410;PMS5003;28056;51.112;0.984;2022-08-18T08:04:45;30;29;
42410;PMS5003;28056;51.112;0.984;2022-08-18T08:07:20;37;37;
42410;PMS5003;28056;51.112;0.984;2022-08-18T08:09:52;37;35;
42410;PMS5003;28056;51.112;0.984;2022-08-18T08:12:38;35;34;
42410;PMS5003;28056;51.112;0.984;2022-08-18T08:15:11;34;33;
42410;PMS5003;28056;51.112;0.984;2022-08-18T08:17:51;31;30;
42410;PMS5003;28056;51.112;0.984;2022-08-18T08:20:26;30;30;
42410;PMS5003;28056;51.112;0.984;2022-08-18T08:23:02;28;28;
42410;PMS5003;28056;51.112;0.984;2022-08-18T08:25:36;37;34;
42410;PMS5003;28056;51.112;0.984;2022-08-18T08:28:16;32;32;
42410;PMS5003;28056;51.112;0.984;2022-08-18T08:31:04;31;31;
42410;PMS5003;28056;51.112;0.984;2022-08-18T08:33:36;39;36;
42410;PMS5003;28056;51.112;0.984;2022-08-18T08:36:10;37;35;
42410;PMS5003;28056;51.112;0.984;2022-08-18T08:38:44;26;26;
42410;PMS5003;28056;51.112;0.984;2022-08-18T08:41:14;35;33;
42410;PMS5003;28056;51.112;0.984;2022-08-18T08:44:00;33;32;
42410;PMS5003;28056;51.112;0.984;2022-08-18T08:46:34;32;29;
42410;PMS5003;28056;51.112;0.984;2022-08-18T08:49:15;34;34;
42410;PMS5003;28056;51.112;0.984;2022-08-18T08:51:53;33;32;
42410;PMS5003;28056;51.112;0.984;2022-08-18T08:54:28;30;28;
42410;PMS5003;28056;51.112;0.984;2022-08-18T08:57:06;29;28;
42410;PMS5003;28056;51.112;0.984;2022-08-18T08:59:36;29;29;
42410;PMS5003;28056;51.112;0.984;2022-08-18T09:02:13;25;25;
42410;PMS5003;28056;51.112;0.984;2022-08-18T09:04:52;25;25;
42410;PMS5003;28056;51.112;0.984;2022-08-18T09:07:37;24;24;
42410;PMS5003;28056;51.112;0.984;2022-08-18T09:10:22;31;30;
42410;PMS5003;28056;51.112;0.984;2022-08-18T09:13:04;31;29;
42410;PMS5003;28056;51.112;0.984;2022-08-18T09:15:52;34;31;
42410;PMS5003;28056;51.112;0.984;2022-08-18T09:18:35;27;25;
42410;PMS5003;28056;51.112;0.984;2022-08-18T09:21:18;27;27;
42410;PMS5003;28056;51.112;0.984;2022-08-18T09:24:01;25;25;
42410;PMS5003;28056;51.112;0.984;2022-08-18T09:26:42;29;27;
42410;PMS5003;28056;51.112;0.984;2022-08-18T09:29:17;28;28;
42410;PMS5003;28056;51.112;0.984;2022-08-18T09:31:49;26;24;
42410;PMS5003;28056;51.112;0.984;2022-08-18T09:35:06;30;29;
42410;PMS5003;28056;51.112;0.984;2022-08-18T09:37:45;27;27;
42410;PMS5003;28056;51.112;0.984;2022-08-18T09:40:16;28;28;
42410;PMS5003;28056;51.112;0.984;2022-08-18T09:42:49;30;30;
42410;PMS5003;28056;51.112;0.984;2022-08-18T09:45:58;29;29;
42410;PMS5003;28056;51.112;0.984;2022-08-18T09:48:28;32;31;
42410;PMS5003;28056;51.112;0.984;2022-08-18T09:51:14;27;27;
42410;PMS5003;28056;51.112;0.984;2022-08-18T09:54:06;33;33;
42410;PMS5003;28056;51.112;0.984;2022-08-18T09:57:41;30;30;
42410;PMS5003;28056;51.112;0.984;2022-08-18T10:00:29;33;30;
42410;PMS5003;28056;51.112;0.984;2022-08-18T10:03:02;25;25;
42410;PMS5003;28056;51.112;0.984;2022-08-18T10:05:38;34;31;
42410;PMS5003;28056;51.112;0.984;2022-08-18T10:08:33;26;26;
42410;PMS5003;28056;51.112;0.984;2022-08-18T10:11:32;26;25;
42410;PMS5003;28056;51.112;0.984;2022-08-18T10:14:16;33;30;
42410;PMS5003;28056;51.112;0.984;2022-08-18T10:16:57;25;25;
42410;PMS5003;28056;51.112;0.984;2022-08-18T10:19:37;33;32;
42410;PMS5003;28056;51.112;0.984;2022-08-18T10:22:13;29;27;
42410;PMS5003;28056;51.112;0.984;2022-08-18T10:25:03;28;27;
42410;PMS5003;28056;51.112;0.984;2022-08-18T10:27:33;30;24;
42410;PMS5003;28056;51.112;0.984;2022-08-18T10:30:43;27;26;
42410;PMS5003;28056;51.112;0.984;2022-08-18T10:35:53;31;28;
42410;PMS5003;28056;51.112;0.984;2022-08-18T10:38:24;31;30;
42410;PMS5003;28056;51.112;0.984;2022-08-18T10:41:03;27;27;
42410;PMS5003;28056;51.112;0.984;2022-08-18T10:43:34;29;29;
42410;PMS5003;28056;51.112;0.984;2022-08-18T10:46:13;28;28;
42410;PMS5003;28056;51.112;0.984;2022-08-18T10:48:45;24;24;
42410;PMS5003;28056;51.112;0.984;2022-08-18T10:51:26;24;24;
42410;PMS5003;28056;51.112;0.984;2022-08-18T10:54:11;31;31;
42410;PMS5003;28056;51.112;0.984;2022-08-18T10:56:46;25;23;
42410;PMS5003;28056;51.112;0.984;2022-08-18T10:59:19;30;29;
42410;PMS5003;28056;51.112;0.984;2022-08-18T11:01:58;27;26;
42410;PMS5003;28056;51.112;0.984;2022-08-18T11:04:36;24;23;
42410;PMS5003;28056;51.112;0.984;2022-08-18T11:07:09;34;32;
42410;PMS5003;28056;51.112;0.984;2022-08-18T11:09:39;33;30;
42410;PMS5003;28056;51.112;0.984;2022-08-18T11:12:10;28;28;
42410;PMS5003;28056;51.112;0.984;2022-08-18T11:14:43;25;24;
42410;PMS5003;28056;51.112;0.984;2022-08-18T11:17:28;30;28;
42410;PMS5003;28056;51.112;0.984;2022-08-18T11:20:05;27;27;
42410;PMS5003;28056;51.112;0.984;2022-08-18T11:22:36;33;31;
42410;PMS5003;28056;51.112;0.984;2022-08-18T11:25:16;31;29;
42410;PMS5003;28056;51.112;0.984;2022-08-18T11:27:48;36;33;
42410;PMS5003;28056;51.112;0.984;2022-08-18T11:30:24;31;29;
42410;PMS5003;28056;51.112;0.984;2022-08-18T11:32:54;34;34;
42410;PMS5003;28056;51.112;0.984;2022-08-18T11:35:23;30;29;
42410;PMS5003;28056;51.112;0.984;2022-08-18T11:37:55;28;27;
42410;PMS5003;28056;51.112;0.984;2022-08-18T11:40:29;33;30;
42410;PMS5003;28056;51.112;0.984;2022-08-18T11:43:01;38;36;
42410;PMS5003;28056;51.112;0.984;2022-08-18T11:45:50;35;34;
42410;PMS5003;28056;51.112;0.984;2022-08-18T11:48:21;42;40;
42410;PMS5003;28056;51.112;0.984;2022-08-18T11:50:59;34;34;
42410;PMS5003;28056;51.112;0.984;2022-08-18T11:53:38;43;41;
42410;PMS5003;28056;51.112;0.984;2022-08-18T11:56:20;36;34;
42410;PMS5003;28056;51.112;0.984;2022-08-18T11:58:49;38;34;
42410;PMS5003;28056;51.112;0.984;2022-08-18T12:01:35;33;33;
42410;PMS5003;28056;51.112;0.984;2022-08-18T12:04:07;28;27;
42410;PMS5003;28056;51.112;0.984;2022-08-18T12:06:51;33;31;
42410;PMS5003;28056;51.112;0.984;2022-08-18T12:09:31;33;32;
42410;PMS5003;28056;51.112;0.984;2022-08-18T12:12:03;32;31;
42410;PMS5003;28056;51.112;0.984;2022-08-18T12:14:50;27;27;
42410;PMS5003;28056;51.112;0.984;2022-08-18T12:17:20;30;30;
42410;PMS5003;28056;51.112;0.984;2022-08-18T12:19:48;26;26;
42410;PMS5003;28056;51.112;0.984;2022-08-18T12:22:16;33;33;
42410;PMS5003;28056;51.112;0.984;2022-08-18T12:24:45;31;29;
42410;PMS5003;28056;51.112;0.984;2022-08-18T12:27:14;30;30;
42410;PMS5003;28056;51.112;0.984;2022-08-18T12:29:43;30;30;
42410;PMS5003;28056;51.112;0.984;2022-08-18T12:32:12;28;28;
42410;PMS5003;28056;51.112;0.984;2022-08-18T12:34:40;32;30;
42410;PMS5003;28056;51.112;0.984;2022-08-18T12:37:08;30;29;
42410;PMS5003;28056;51.112;0.984;2022-08-18T12:39:36;31;28;
42410;PMS5003;28056;51.112;0.984;2022-08-18T12:42:03;27;27;
42410;PMS5003;28056;51.112;0.984;2022-08-18T12:44:30;28;25;
42410;PMS5003;28056;51.112;0.984;2022-08-18T12:46:58;29;27;
42410;PMS5003;28056;51.112;0.984;2022-08-18T12:49:27;24;24;
42410;PMS5003;28056;51.112;0.984;2022-08-18T12:51:55;31;30;
42410;PMS5003;28056;51.112;0.984;2022-08-18T12:54:24;28;27;
42410;PMS5003;28056;51.112;0.984;2022-08-18T12:56:56;23;23;
42410;PMS5003;28056;51.112;0.984;2022-08-18T12:59:24;30;27;
42410;PMS5003;28056;51.112;0.984;2022-08-18T13:01:51;27;27;
42410;PMS5003;28056;51.112;0.984;2022-08-18T13:04:19;27;27;
42410;PMS5003;28056;51.112;0.984;2022-08-18T13:06:47;32;30;
42410;PMS5003;28056;51.112;0.984;2022-08-18T13:09:16;34;32;
42410;PMS5003;28056;51.112;0.984;2022-08-18T13:11:43;30;30;
42410;PMS5003;28056;51.112;0.984;2022-08-18T13:14:10;30;28;
42410;PMS5003;28056;51.112;0.984;2022-08-18T13:16:39;31;31;
42410;PMS5003;28056;51.112;0.984;2022-08-18T13:19:08;33;32;
42410;PMS5003;28056;51.112;0.984;2022-08-18T13:21:36;31;29;
42410;PMS5003;28056;51.112;0.984;2022-08-18T13:24:05;28;28;
42410;PMS5003;28056;51.112;0.984;2022-08-18T13:26:34;38;35;
42410;PMS5003;28056;51.112;0.984;2022-08-18T13:29:03;37;31;
42410;PMS5003;28056;51.112;0.984;2022-08-18T13:31:31;36;34;
42410;PMS5003;28056;51.112;0.984;2022-08-18T13:33:58;34;32;
42410;PMS5003;28056;51.112;0.984;2022-08-18T13:36:26;32;32;
42410;PMS5003;28056;51.112;0.984;2022-08-18T13:38:54;34;33;
42410;PMS5003;28056;51.112;0.984;2022-08-18T13:41:22;39;37;
42410;PMS5003;28056;51.112;0.984;2022-08-18T13:43:51;34;31;
42410;PMS5003;28056;51.112;0.984;2022-08-18T13:46:18;30;30;
42410;PMS5003;28056;51.112;0.984;2022-08-18T13:48:46;28;28;
42410;PMS5003;28056;51.112;0.984;2022-08-18T13:51:15;29;29;
42410;PMS5003;28056;51.112;0.984;2022-08-18T13:53:48;28;28;
42410;PMS5003;28056;51.112;0.984;2022-08-18T13:56:15;27;27;
42410;PMS5003;28056;51.112;0.984;2022-08-18T13:58:43;35;33;
42410;PMS5003;28056;51.112;0.984;2022-08-18T14:01:10;23;22;
42410;PMS5003;28056;51.112;0.984;2022-08-18T14:03:38;26;26;
42410;PMS5003;28056;51.112;0.984;2022-08-18T14:06:05;26;24;
42410;PMS5003;28056;51.112;0.984;2022-08-18T14:08:33;23;23;
42410;PMS5003;28056;51.112;0.984;2022-08-18T14:11:01;23;23;
42410;PMS5003;28056;51.112;0.984;2022-08-18T14:13:29;29;26;
42410;PMS5003;28056;51.112;0.984;2022-08-18T14:15:57;25;23;
42410;PMS5003;28056;51.112;0.984;2022-08-18T14:18:25;25;25;
42410;PMS5003;28056;51.112;0.984;2022-08-18T14:20:54;21;21;
42410;PMS5003;28056;51.112;0.984;2022-08-18T14:23:21;29;29;
42410;PMS5003;28056;51.112;0.984;2022-08-18T14:25:49;19;19;
42410;PMS5003;28056;51.112;0.984;2022-08-18T14:28:17;23;23;
42410;PMS5003;28056;51.112;0.984;2022-08-18T14:30:44;22;21;
42410;PMS5003;28056;51.112;0.984;2022-08-18T14:33:12;27;26;
42410;PMS5003;28056;51.112;0.984;2022-08-18T14:35:46;24;23;
42410;PMS5003;28056;51.112;0.984;2022-08-18T14:38:13;25;25;
42410;PMS5003;28056;51.112;0.984;2022-08-18T14:40:42;26;26;
42410;PMS5003;28056;51.112;0.984;2022-08-18T14:43:11;28;27;
42410;PMS5003;28056;51.112;0.984;2022-08-18T14:45:46;28;28;
42410;PMS5003;28056;51.112;0.984;2022-08-18T14:48:14;28;25;
42410;PMS5003;28056;51.112;0.984;2022-08-18T14:50:45;30;27;
42410;PMS5003;28056;51.112;0.984;2022-08-18T14:53:14;30;28;
42410;PMS5003;28056;51.112;0.984;2022-08-18T14:55:43;30;30;
42410;PMS5003;28056;51.112;0.984;2022-08-18T14:58:10;30;29;
42410;PMS5003;28056;51.112;0.984;2022-08-18T15:00:37;28;26;
42410;PMS5003;28056;51.112;0.984;2022-08-18T15:03:05;30;30;
42410;PMS5003;28056;51.112;0.984;2022-08-18T15:05:33;30;30;
42410;PMS5003;28056;51.112;0.984;2022-08-18T15:08:02;28;28;
42410;PMS5003;28056;51.112;0.984;2022-08-18T15:10:29;36;32;
42410;PMS5003;28056;51.112;0.984;2022-08-18T15:12:58;30;30;
42410;PMS5003;28056;51.112;0.984;2022-08-18T15:15:26;32;30;
42410;PMS5003;28056;51.112;0.984;2022-08-18T15:17:54;34;32;
42410;PMS5003;28056;51.112;0.984;2022-08-18T15:20:23;30;27;
42410;PMS5003;28056;51.112;0.984;2022-08-18T15:22:52;26;26;
42410;PMS5003;28056;51.112;0.984;2022-08-18T15:25:20;32;32;
42410;PMS5003;28056;51.112;0.984;2022-08-18T15:27:48;27;26;
42410;PMS5003;28056;51.112;0.984;2022-08-18T15:30:15;26;26;
42410;PMS5003;28056;51.112;0.984;2022-08-18T15:32:44;32;30;
42410;PMS5003;28056;51.112;0.984;2022-08-18T15:35:13;29;29;
42410;PMS5003;28056;51.112;0.984;2022-08-18T15:37:42;24;24;
42410;PMS5003;28056;51.112;0.984;2022-08-18T15:40:12;35;31;
42410;PMS5003;28056;51.112;0.984;2022-08-18T15:42:42;29;28;
42410;PMS5003;28056;51.112;0.984;2022-08-18T15:45:12;33;30;
42410;PMS5003;28056;51.112;0.984;2022-08-18T15:47:41;28;27;
42410;PMS5003;28056;51.112;0.984;2022-08-18T15:50:09;28;27;
42410;PMS5003;28056;51.112;0.984;2022-08-18T15:52:37;22;22;
42410;PMS5003;28056;51.112;0.984;2022-08-18T15:55:12;24;24;
42410;PMS5003;28056;51.112;0.984;2022-08-18T15:57:39;25;25;
42410;PMS5003;28056;51.112;0.984;2022-08-18T16:00:07;30;26;
42410;PMS5003;28056;51.112;0.984;2022-08-18T16:02:35;26;26;
42410;PMS5003;28056;51.112;0.984;2022-08-18T16:05:03;24;24;
42410;PMS5003;28056;51.112;0.984;2022-08-18T16:07:31;24;23;
42410;PMS5003;28056;51.112;0.984;2022-08-18T16:09:59;24;22;
42410;PMS5003;28056;51.112;0.984;2022-08-18T16:12:32;26;24;
42410;PMS5003;28056;51.112;0.984;2022-08-18T16:14:59;21;21;
42410;PMS5003;28056;51.112;0.984;2022-08-18T16:17:26;23;20;
42410;PMS5003;28056;51.112;0.984;2022-08-18T16:19:55;23;22;
42410;PMS5003;28056;51.112;0.984;2022-08-18T16:22:22;21;21;
42410;PMS5003;28056;51.112;0.984;2022-08-18T16:24:51;28;24;
42410;PMS5003;28056;51.112;0.984;2022-08-18T16:27:22;23;23;
42410;PMS5003;28056;51.112;0.984;2022-08-18T16:29:50;23;23;
42410;PMS5003;28056;51.112;0.984;2022-08-18T16:32:18;24;21;
42410;PMS5003;28056;51.112;0.984;2022-08-18T16:34:45;25;22;
42410;PMS5003;28056;51.112;0.984;2022-08-18T16:37:13;22;22;
42410;PMS5003;28056;51.112;0.984;2022-08-18T16:39:42;24;24;
42410;PMS5003;28056;51.112;0.984;2022-08-18T16:42:09;23;22;
42410;PMS5003;28056;51.112;0.984;2022-08-18T16:44:36;22;21;
42410;PMS5003;28056;51.112;0.984;2022-08-18T16:47:04;13;13;
42410;PMS5003;28056;51.112;0.984;2022-08-18T16:49:32;14;11;
42410;PMS5003;28056;51.112;0.984;2022-08-18T16:52:01;16;15;
42410;PMS5003;28056;51.112;0.984;2022-08-18T16:54:28;14;13;
42410;PMS5003;28056;51.112;0.984;2022-08-18T16:56:57;11;11;